Time;durP1;ratioP1;P1;durP2;ratioP2;P2;SDS_P1;SDS_P2;PMS_P1;PMS_P2;Temp;Humidity;BMP_temperature;BMP_pressure;BME280_temperature;BME280_humidity;BME280_pressure;Samples;Min_cycle;Max_cycle;Signal;HPM_P1;HPM_P2
2024/02/02 00:01:12;;;;;;;10.43;6.18;;;;;;;;;;5069103;28;20053;-68
2024/02/02 00:03:40;;;;;;;10.50;6.50;;;;;;;;;;5071665;28;20048;-58
2024/02/02 00:06:09;;;;;;;11.65;6.50;;;;;;;;;;5070905;28;20059;-58
2024/02/02 00:08:37;;;;;;;11.07;6.72;;;;;;;;;;5071269;28;20052;-61
2024/02/02 00:11:06;;;;;;;11.20;6.80;;;;;;;;;;5070033;28;20080;-60
2024/02/02 00:13:34;;;;;;;10.10;6.10;;;;;;;;;;5071469;28;20095;-59
2024/02/02 00:16:03;;;;;;;9.23;6.20;;;;;;;;;;5070867;28;20087;-57
2024/02/02 00:18:33;;;;;;;11.77;6.22;;;;;;;;;;5071139;28;20101;-57
2024/02/02 00:21:01;;;;;;;8.95;5.90;;;;;;;;;;5066077;28;20049;-56
2024/02/02 00:23:30;;;;;;;9.82;6.07;;;;;;;;;;5071035;28;20441;-63
2024/02/02 00:25:58;;;;;;;10.02;6.50;;;;;;;;;;5070002;28;20153;-64
2024/02/02 00:28:27;;;;;;;10.02;5.97;;;;;;;;;;5067951;28;20138;-66
2024/02/02 00:30:55;;;;;;;9.88;6.05;;;;;;;;;;5070693;28;20059;-57
2024/02/02 00:33:24;;;;;;;10.93;6.88;;;;;;;;;;5071499;28;20098;-59
2024/02/02 00:35:54;;;;;;;9.48;5.35;;;;;;;;;;5071720;28;20044;-64
2024/02/02 00:38:22;;;;;;;10.18;6.32;;;;;;;;;;5069830;28;20072;-59
2024/02/02 00:40:51;;;;;;;8.52;5.15;;;;;;;;;;5069856;28;20122;-57
2024/02/02 00:43:19;;;;;;;10.55;6.63;;;;;;;;;;5071012;28;20102;-57
2024/02/02 00:45:47;;;;;;;9.52;6.70;;;;;;;;;;5071397;28;20509;-61
2024/02/02 00:48:16;;;;;;;8.38;5.55;;;;;;;;;;5068369;28;20436;-63
2024/02/02 00:50:45;;;;;;;9.85;5.93;;;;;;;;;;5058875;28;20041;-57
2024/02/02 00:53:15;;;;;;;10.20;6.30;;;;;;;;;;5069411;28;20072;-57
2024/02/02 00:55:44;;;;;;;8.80;5.88;;;;;;;;;;5070658;28;20101;-57
2024/02/02 00:58:12;;;;;;;10.88;5.97;;;;;;;;;;5068564;28;20098;-56
2024/02/02 01:00:41;;;;;;;10.60;6.72;;;;;;;;;;5070063;28;20048;-61
2024/02/02 01:03:09;;;;;;;10.73;6.32;;;;;;;;;;5070907;28;20414;-60
2024/02/02 01:05:38;;;;;;;11.15;6.53;;;;;;;;;;5070603;28;20493;-62
2024/02/02 01:08:06;;;;;;;10.98;6.15;;;;;;;;;;5069766;28;20465;-57
2024/02/02 01:10:36;;;;;;;9.88;5.72;;;;;;;;;;5068309;28;20044;-56
2024/02/02 01:13:05;;;;;;;12.15;6.32;;;;;;;;;;5070338;28;20076;-57
2024/02/02 01:15:34;;;;;;;11.25;5.78;;;;;;;;;;5070731;28;20553;-59
2024/02/02 01:18:02;;;;;;;8.60;5.13;;;;;;;;;;5069064;28;20053;-62
2024/02/02 01:20:31;;;;;;;9.00;5.50;;;;;;;;;;5068368;28;20056;-57
2024/02/02 01:23:00;;;;;;;8.50;5.20;;;;;;;;;;5070648;28;20555;-60
2024/02/02 01:25:29;;;;;;;9.73;5.63;;;;;;;;;;5070044;28;20053;-57
2024/02/02 01:28:00;;;;;;;9.43;6.13;;;;;;;;;;5069632;28;20044;-59
2024/02/02 01:30:29;;;;;;;9.25;5.30;;;;;;;;;;5068488;28;20481;-59
2024/02/02 01:32:58;;;;;;;8.60;5.50;;;;;;;;;;5068469;28;20052;-58
2024/02/02 01:35:26;;;;;;;7.35;5.03;;;;;;;;;;5070219;28;20063;-60
2024/02/02 01:37:55;;;;;;;9.20;5.68;;;;;;;;;;5069072;28;20497;-58
2024/02/02 01:40:24;;;;;;;11.43;6.20;;;;;;;;;;5069530;28;20455;-60
2024/02/02 01:42:52;;;;;;;10.45;6.15;;;;;;;;;;5068175;28;20565;-59
2024/02/02 01:45:22;;;;;;;10.25;5.55;;;;;;;;;;5069431;28;20123;-57
2024/02/02 01:47:51;;;;;;;8.27;5.20;;;;;;;;;;5069890;28;20045;-57
2024/02/02 01:50:19;;;;;;;8.55;5.82;;;;;;;;;;5068250;28;20106;-58
2024/02/02 01:52:48;;;;;;;8.02;5.40;;;;;;;;;;5068606;28;20044;-63
2024/02/02 01:55:16;;;;;;;9.25;5.60;;;;;;;;;;5058738;28;20040;-58
2024/02/02 01:57:45;;;;;;;7.50;5.32;;;;;;;;;;5068193;28;20259;-58
2024/02/02 02:00:14;;;;;;;9.40;5.25;;;;;;;;;;5067860;28;20098;-57
2024/02/02 02:02:44;;;;;;;10.20;5.65;;;;;;;;;;5069617;28;20158;-63
2024/02/02 02:05:12;;;;;;;9.93;5.88;;;;;;;;;;5069568;28;20131;-58
2024/02/02 02:07:44;;;;;;;11.18;5.53;;;;;;;;;;5067482;28;20412;-63
2024/02/02 02:10:13;;;;;;;8.50;5.80;;;;;;;;;;5067856;28;20120;-57
2024/02/02 02:12:41;;;;;;;9.18;5.55;;;;;;;;;;5068574;28;20504;-57
2024/02/02 02:15:10;;;;;;;9.30;5.65;;;;;;;;;;5069203;28;20590;-60
2024/02/02 02:17:39;;;;;;;9.45;6.30;;;;;;;;;;5067014;28;20048;-58
2024/02/02 02:20:11;;;;;;;11.68;6.95;;;;;;;;;;5068833;28;20045;-63
2024/02/02 02:22:41;;;;;;;10.95;5.80;;;;;;;;;;5047352;28;20504;-58
2024/02/02 02:25:10;;;;;;;10.93;6.70;;;;;;;;;;5048641;28;20037;-57
2024/02/02 02:27:38;;;;;;;11.50;5.97;;;;;;;;;;5046747;28;20102;-58
2024/02/02 02:30:07;;;;;;;11.88;5.72;;;;;;;;;;5046733;28;20048;-63
2024/02/02 02:32:36;;;;;;;10.80;5.70;;;;;;;;;;5048871;28;20055;-59
2024/02/02 02:35:05;;;;;;;8.63;5.93;;;;;;;;;;5049232;28;20075;-57
2024/02/02 02:37:34;;;;;;;10.73;5.82;;;;;;;;;;5048088;28;20563;-57
2024/02/02 02:40:05;;;;;;;8.38;5.15;;;;;;;;;;5047135;28;20456;-57
2024/02/02 02:42:34;;;;;;;8.68;5.47;;;;;;;;;;5047250;28;20056;-64
2024/02/02 02:45:02;;;;;;;9.07;5.65;;;;;;;;;;5047253;28;20337;-58
2024/02/02 02:47:31;;;;;;;8.98;5.70;;;;;;;;;;5047745;28;20057;-57
2024/02/02 02:50:00;;;;;;;8.50;5.43;;;;;;;;;;5046033;28;20041;-57
2024/02/02 02:52:28;;;;;;;8.20;4.90;;;;;;;;;;5043343;28;20080;-57
2024/02/02 02:54:56;;;;;;;7.57;5.07;;;;;;;;;;5047589;28;20567;-60
2024/02/02 02:57:26;;;;;;;7.63;4.32;;;;;;;;;;5047909;28;20073;-62
2024/02/02 02:59:55;;;;;;;8.20;5.28;;;;;;;;;;5047372;28;20111;-58
2024/02/02 03:02:24;;;;;;;8.43;4.88;;;;;;;;;;5047337;28;20506;-58
2024/02/02 03:04:52;;;;;;;7.45;5.03;;;;;;;;;;5049250;28;20072;-59
2024/02/02 03:07:21;;;;;;;8.52;5.18;;;;;;;;;;5048194;28;20049;-61
2024/02/02 03:09:49;;;;;;;8.25;5.30;;;;;;;;;;5044186;28;20053;-63
2024/02/02 03:12:18;;;;;;;9.57;5.63;;;;;;;;;;5048256;28;20041;-62
2024/02/02 03:14:48;;;;;;;9.27;4.78;;;;;;;;;;5046100;28;20839;-58
2024/02/02 03:17:16;;;;;;;11.65;4.88;;;;;;;;;;5043266;28;20527;-58
2024/02/02 03:19:45;;;;;;;11.15;5.40;;;;;;;;;;5043730;28;20095;-60
2024/02/02 03:22:13;;;;;;;8.88;5.43;;;;;;;;;;5059716;28;20531;-58
2024/02/02 03:24:42;;;;;;;8.05;5.13;;;;;;;;;;5067881;28;20167;-58
2024/02/02 03:27:10;;;;;;;8.07;4.43;;;;;;;;;;5067597;28;20127;-60
2024/02/02 03:29:39;;;;;;;10.90;5.32;;;;;;;;;;5067980;28;20063;-58
2024/02/02 03:32:10;;;;;;;8.10;5.03;;;;;;;;;;5066254;28;20049;-61
2024/02/02 03:34:38;;;;;;;8.68;4.90;;;;;;;;;;5069594;28;20102;-59
2024/02/02 03:37:07;;;;;;;6.95;4.25;;;;;;;;;;5071323;28;20135;-60
2024/02/02 03:39:36;;;;;;;10.95;5.50;;;;;;;;;;5072881;28;20117;-57
2024/02/02 03:42:04;;;;;;;6.38;4.15;;;;;;;;;;5072314;28;20055;-58
2024/02/02 03:44:33;;;;;;;6.35;4.07;;;;;;;;;;5071930;28;20052;-60
2024/02/02 03:47:01;;;;;;;6.93;4.53;;;;;;;;;;5068806;28;20493;-59
2024/02/02 03:49:32;;;;;;;11.90;4.55;;;;;;;;;;5071391;28;20461;-61
2024/02/02 03:52:00;;;;;;;5.88;3.88;;;;;;;;;;5070886;28;20508;-57
2024/02/02 03:54:29;;;;;;;7.40;5.47;;;;;;;;;;5071427;28;20072;-58
2024/02/02 03:56:58;;;;;;;9.75;4.50;;;;;;;;;;5070979;28;20142;-61
2024/02/02 03:59:26;;;;;;;8.13;4.78;;;;;;;;;;5071319;28;20106;-61
2024/02/02 04:01:54;;;;;;;9.25;4.88;;;;;;;;;;5070263;28;20060;-59
2024/02/02 04:04:23;;;;;;;9.73;5.28;;;;;;;;;;5070535;28;20590;-57
2024/02/02 04:06:53;;;;;;;7.90;4.40;;;;;;;;;;5071842;28;20511;-59
2024/02/02 04:09:21;;;;;;;7.32;4.57;;;;;;;;;;5071390;28;20098;-63
2024/02/02 04:11:50;;;;;;;9.70;5.07;;;;;;;;;;5071232;28;20076;-59
2024/02/02 04:14:19;;;;;;;8.93;5.20;;;;;;;;;;5071230;28;20094;-62
2024/02/02 04:16:47;;;;;;;7.80;4.72;;;;;;;;;;5069611;28;20547;-58
2024/02/02 04:19:17;;;;;;;8.77;4.75;;;;;;;;;;5071471;28;20045;-58
2024/02/02 04:21:46;;;;;;;7.80;5.00;;;;;;;;;;5068321;28;20162;-60
2024/02/02 04:24:16;;;;;;;9.75;4.65;;;;;;;;;;5069777;28;20052;-61
2024/02/02 04:26:45;;;;;;;10.70;5.05;;;;;;;;;;5069611;28;20074;-60
2024/02/02 04:29:13;;;;;;;10.52;5.47;;;;;;;;;;5070773;28;20110;-58
2024/02/02 04:31:42;;;;;;;8.25;5.22;;;;;;;;;;5070504;28;20048;-58
2024/02/02 04:34:10;;;;;;;10.48;5.28;;;;;;;;;;5063586;28;20489;-59
2024/02/02 04:36:41;;;;;;;9.18;5.57;;;;;;;;;;5070395;28;20045;-59
2024/02/02 04:39:09;;;;;;;9.32;5.85;;;;;;;;;;5068826;28;20048;-59
2024/02/02 04:41:39;;;;;;;9.95;5.72;;;;;;;;;;5069600;28;20102;-58
2024/02/02 04:44:08;;;;;;;7.78;4.50;;;;;;;;;;5075034;28;20044;-64
2024/02/02 04:46:36;;;;;;;9.82;5.78;;;;;;;;;;5068548;28;21174;-60
2024/02/02 04:49:05;;;;;;;8.98;5.53;;;;;;;;;;5070764;28;20040;-60
2024/02/02 04:51:35;;;;;;;9.23;5.47;;;;;;;;;;5066797;28;20409;-61
2024/02/02 04:54:03;;;;;;;9.27;5.88;;;;;;;;;;5069146;28;20047;-57
2024/02/02 04:56:32;;;;;;;8.55;5.30;;;;;;;;;;5069898;28;20048;-57
2024/02/02 04:59:01;;;;;;;8.07;5.20;;;;;;;;;;5069334;28;20105;-60
2024/02/02 05:01:30;;;;;;;13.95;7.22;;;;;;;;;;5069252;28;20052;-60
2024/02/02 05:03:59;;;;;;;10.13;6.20;;;;;;;;;;5069520;28;20051;-61
2024/02/02 05:06:27;;;;;;;9.98;6.43;;;;;;;;;;5064203;28;20071;-58
2024/02/02 05:08:56;;;;;;;10.15;5.32;;;;;;;;;;5063677;28;20067;-58
2024/02/02 05:11:25;;;;;;;12.32;5.72;;;;;;;;;;5069766;28;20056;-59
2024/02/02 05:13:53;;;;;;;11.15;5.85;;;;;;;;;;5070476;28;20124;-61
2024/02/02 05:16:23;;;;;;;11.50;6.43;;;;;;;;;;5061081;28;20048;-58
2024/02/02 05:18:51;;;;;;;11.50;6.65;;;;;;;;;;5070055;28;20489;-57
2024/02/02 05:21:20;;;;;;;19.60;6.72;;;;;;;;;;5067940;28;20045;-58
2024/02/02 05:23:48;;;;;;;11.63;7.03;;;;;;;;;;5066366;28;20436;-60
2024/02/02 05:26:18;;;;;;;12.43;6.85;;;;;;;;;;5067546;28;20045;-59
2024/02/02 05:28:46;;;;;;;10.52;6.60;;;;;;;;;;5068183;28;20603;-58
2024/02/02 05:31:14;;;;;;;11.05;6.15;;;;;;;;;;5068688;28;20455;-58
2024/02/02 05:33:45;;;;;;;11.10;5.82;;;;;;;;;;5069767;28;20044;-58
2024/02/02 05:36:15;;;;;;;8.63;5.72;;;;;;;;;;5065234;28;20134;-60
2024/02/02 05:38:43;;;;;;;12.88;6.78;;;;;;;;;;5066086;28;20060;-64
2024/02/02 05:41:11;;;;;;;12.20;6.70;;;;;;;;;;5068672;28;20114;-62
2024/02/02 05:43:40;;;;;;;11.23;6.35;;;;;;;;;;5069474;28;20072;-57
2024/02/02 05:46:08;;;;;;;12.75;6.78;;;;;;;;;;5069529;28;20141;-59
2024/02/02 05:48:37;;;;;;;11.30;6.28;;;;;;;;;;5068863;28;20116;-61
2024/02/02 05:51:07;;;;;;;10.65;6.32;;;;;;;;;;5067172;28;20049;-67
2024/02/02 05:53:35;;;;;;;13.35;7.10;;;;;;;;;;5065721;28;20056;-60
2024/02/02 05:56:04;;;;;;;12.57;6.30;;;;;;;;;;5067472;28;20086;-59
2024/02/02 05:58:33;;;;;;;12.05;6.60;;;;;;;;;;5067986;28;20121;-57
2024/02/02 06:01:01;;;;;;;11.73;6.15;;;;;;;;;;5068289;28;20045;-61
2024/02/02 06:03:30;;;;;;;9.15;5.72;;;;;;;;;;5068030;28;20044;-61
2024/02/02 06:05:58;;;;;;;12.30;6.32;;;;;;;;;;5067486;28;20052;-59
2024/02/02 06:08:28;;;;;;;13.48;6.88;;;;;;;;;;5062770;28;20389;-59
2024/02/02 06:10:56;;;;;;;11.07;6.10;;;;;;;;;;5064424;28;20055;-67
2024/02/02 06:13:25;;;;;;;10.57;6.13;;;;;;;;;;5062858;28;20063;-60
2024/02/02 06:15:53;;;;;;;9.70;6.03;;;;;;;;;;5065225;28;20064;-59
2024/02/02 06:18:22;;;;;;;10.88;6.03;;;;;;;;;;5066638;28;20578;-58
2024/02/02 06:20:50;;;;;;;9.60;5.97;;;;;;;;;;5066688;28;20501;-58
2024/02/02 06:23:19;;;;;;;10.95;5.35;;;;;;;;;;5066304;28;20516;-58
2024/02/02 06:25:49;;;;;;;10.18;5.75;;;;;;;;;;5068008;28;20063;-59
2024/02/02 06:28:17;;;;;;;8.70;5.20;;;;;;;;;;5057495;28;20049;-60
2024/02/02 06:30:48;;;;;;;9.93;5.72;;;;;;;;;;5057963;28;20052;-76
2024/02/02 06:33:16;;;;;;;10.38;5.88;;;;;;;;;;5067747;28;20139;-57
2024/02/02 06:35:45;;;;;;;9.90;5.95;;;;;;;;;;5069291;28;20052;-57
2024/02/02 06:38:14;;;;;;;12.80;6.05;;;;;;;;;;5068632;28;20102;-60
2024/02/02 06:40:42;;;;;;;10.32;6.00;;;;;;;;;;5068488;28;20122;-62
2024/02/02 06:43:12;;;;;;;10.80;5.80;;;;;;;;;;5066855;28;20040;-62
2024/02/02 06:45:41;;;;;;;9.93;5.35;;;;;;;;;;5065995;28;20452;-57
2024/02/02 06:48:14;;;;;;;9.43;5.30;;;;;;;;;;5065102;28;20453;-57
2024/02/02 06:50:44;;;;;;;9.15;5.47;;;;;;;;;;5067140;28;20048;-60
2024/02/02 06:53:13;;;;;;;8.18;5.32;;;;;;;;;;5065784;28;20048;-59
2024/02/02 06:55:41;;;;;;;9.63;5.72;;;;;;;;;;5066305;28;20060;-60
2024/02/02 06:58:18;;;;;;;10.32;5.25;;;;;;;;;;5068119;28;20087;-58
2024/02/02 07:00:46;;;;;;;9.38;5.13;;;;;;;;;;5068072;28;20488;-57
2024/02/02 07:03:15;;;;;;;7.97;5.05;;;;;;;;;;5057713;28;20056;-60
2024/02/02 07:05:44;;;;;;;9.43;5.18;;;;;;;;;;5063668;28;20068;-63
2024/02/02 07:08:13;;;;;;;9.02;4.95;;;;;;;;;;5060432;28;20302;-58
2024/02/02 07:10:41;;;;;;;8.68;5.03;;;;;;;;;;5069072;28;20098;-57
2024/02/02 07:13:10;;;;;;;8.05;4.68;;;;;;;;;;5065076;28;20479;-58
2024/02/02 07:15:41;;;;;;;8.57;4.72;;;;;;;;;;5069810;28;20090;-63
2024/02/02 07:18:15;;;;;;;9.18;5.20;;;;;;;;;;5066043;28;20076;-63
2024/02/02 07:21:02;;;;;;;11.70;5.32;;;;;;;;;;5071828;28;20060;-60
2024/02/02 07:23:35;;;;;;;11.13;4.85;;;;;;;;;;5066708;28;20110;-58
2024/02/02 07:26:07;;;;;;;6.32;3.72;;;;;;;;;;5072415;28;20051;-62
2024/02/02 07:28:37;;;;;;;8.55;4.78;;;;;;;;;;5070428;28;20448;-58
2024/02/02 07:31:09;;;;;;;7.57;4.60;;;;;;;;;;5071993;28;20654;-61
2024/02/02 07:33:40;;;;;;;7.13;4.78;;;;;;;;;;5068106;28;20047;-62
2024/02/02 07:36:11;;;;;;;7.95;5.07;;;;;;;;;;5070611;28;20056;-58
2024/02/02 07:38:43;;;;;;;8.18;4.90;;;;;;;;;;5071276;28;20489;-61
2024/02/02 07:41:13;;;;;;;7.28;4.45;;;;;;;;;;5069349;28;20097;-57
2024/02/02 07:43:41;;;;;;;6.82;4.25;;;;;;;;;;5072493;28;20080;-56
2024/02/02 07:46:11;;;;;;;6.57;4.45;;;;;;;;;;5072694;28;20045;-58
2024/02/02 07:48:43;;;;;;;6.80;4.30;;;;;;;;;;5060449;28;20060;-58
2024/02/02 07:51:12;;;;;;;6.20;4.22;;;;;;;;;;5056246;28;20052;-69
2024/02/02 07:53:40;;;;;;;7.75;4.60;;;;;;;;;;5053486;28;20043;-61
2024/02/02 07:56:09;;;;;;;6.60;4.20;;;;;;;;;;5056901;28;20094;-60
2024/02/02 07:58:39;;;;;;;8.38;4.68;;;;;;;;;;5059621;28;20055;-58
2024/02/02 08:01:08;;;;;;;6.68;4.47;;;;;;;;;;5060682;28;20052;-64
2024/02/02 08:03:38;;;;;;;7.93;4.68;;;;;;;;;;5061577;28;20440;-68
2024/02/02 08:06:08;;;;;;;7.45;4.90;;;;;;;;;;5059648;28;20920;-62
2024/02/02 08:08:37;;;;;;;5.97;4.30;;;;;;;;;;5059350;28;20048;-58
2024/02/02 08:11:06;;;;;;;8.75;4.80;;;;;;;;;;5060616;28;20055;-58
2024/02/02 08:13:35;;;;;;;7.43;4.32;;;;;;;;;;5059356;28;20702;-58
2024/02/02 08:16:04;;;;;;;6.03;3.83;;;;;;;;;;5064001;28;20054;-63
2024/02/02 08:18:33;;;;;;;7.80;4.13;;;;;;;;;;5066251;28;20048;-59
2024/02/02 08:21:03;;;;;;;5.93;3.78;;;;;;;;;;5058410;28;20051;-59
2024/02/02 08:23:32;;;;;;;8.13;4.50;;;;;;;;;;5060921;28;20105;-59
2024/02/02 08:26:01;;;;;;;7.32;3.67;;;;;;;;;;5058616;28;20048;-63
2024/02/02 08:28:30;;;;;;;6.22;4.30;;;;;;;;;;5060727;28;20310;-67
2024/02/02 08:31:12;;;;;;;6.30;3.80;;;;;;;;;;5059193;28;20053;-72
2024/02/02 08:33:43;;;;;;;7.72;3.70;;;;;;;;;;5059131;28;20237;-58
2024/02/02 08:36:13;;;;;;;7.00;4.10;;;;;;;;;;5061817;28;20052;-58
2024/02/02 08:38:42;;;;;;;7.28;4.47;;;;;;;;;;5058207;28;20049;-60
2024/02/02 08:41:12;;;;;;;6.57;4.15;;;;;;;;;;5057761;28;20041;-58
2024/02/02 08:43:42;;;;;;;6.55;4.15;;;;;;;;;;5058388;28;20055;-58
2024/02/02 08:46:10;;;;;;;6.63;3.95;;;;;;;;;;5059547;28;20044;-57
2024/02/02 08:48:44;;;;;;;7.32;4.45;;;;;;;;;;5062247;28;20151;-58
2024/02/02 08:51:33;;;;;;;5.47;3.33;;;;;;;;;;5069105;28;20551;-57
2024/02/02 08:54:12;;;;;;;5.50;3.45;;;;;;;;;;5068521;28;20405;-58
2024/02/02 08:56:40;;;;;;;6.40;3.55;;;;;;;;;;5069839;28;20057;-58
2024/02/02 08:59:28;;;;;;;6.32;3.80;;;;;;;;;;5070323;28;20845;-58
2024/02/02 09:01:57;;;;;;;5.85;3.42;;;;;;;;;;5070278;28;20566;-60
2024/02/02 09:04:40;;;;;;;6.32;3.15;;;;;;;;;;5069831;28;20412;-59
2024/02/02 09:07:11;;;;;;;12.68;3.58;;;;;;;;;;5069643;28;20064;-60
2024/02/02 09:09:41;;;;;;;5.38;3.47;;;;;;;;;;5068329;28;20048;-63
2024/02/02 09:12:10;;;;;;;6.32;3.58;;;;;;;;;;5066126;28;20045;-60
2024/02/02 09:14:38;;;;;;;5.53;3.67;;;;;;;;;;5069921;28;20125;-58
2024/02/02 09:17:08;;;;;;;6.78;3.97;;;;;;;;;;5070338;28;20041;-60
2024/02/02 09:19:41;;;;;;;6.75;3.47;;;;;;;;;;5070428;28;20045;-57
2024/02/02 09:22:12;;;;;;;6.30;3.22;;;;;;;;;;5069853;28;20052;-61
2024/02/02 09:24:43;;;;;;;8.18;3.53;;;;;;;;;;5068761;28;20098;-60
2024/02/02 09:27:14;;;;;;;7.03;3.72;;;;;;;;;;5069432;28;20451;-58
2024/02/02 09:29:46;;;;;;;5.28;3.15;;;;;;;;;;5070927;28;20048;-58
2024/02/02 09:32:16;;;;;;;5.53;3.42;;;;;;;;;;5069519;28;20559;-61
2024/02/02 09:34:45;;;;;;;6.60;3.47;;;;;;;;;;5068537;28;20044;-61
2024/02/02 09:37:17;;;;;;;7.70;2.95;;;;;;;;;;5069233;28;20147;-61
2024/02/02 09:39:56;;;;;;;4.88;3.03;;;;;;;;;;5069433;28;20070;-57
2024/02/02 09:42:43;;;;;;;4.13;2.80;;;;;;;;;;5065208;28;20098;-58
2024/02/02 09:45:13;;;;;;;4.50;2.78;;;;;;;;;;5069149;28;20131;-61
2024/02/02 09:47:50;;;;;;;5.32;3.40;;;;;;;;;;5067155;28;20040;-61
2024/02/02 09:50:25;;;;;;;5.93;3.22;;;;;;;;;;5067512;28;20048;-62
2024/02/02 09:53:05;;;;;;;7.22;3.00;;;;;;;;;;5065058;28;20056;-60
2024/02/02 09:55:40;;;;;;;5.68;2.58;;;;;;;;;;5068509;28;20047;-64
2024/02/02 09:58:08;;;;;;;;;;;;;;;;;;5068518;28;20056;-59
2024/02/02 10:00:40;;;;;;;4.55;2.63;;;;;;;;;;5060723;28;19977;-61
2024/02/02 10:03:15;;;;;;;4.68;2.55;;;;;;;;;;5065915;28;20082;-59
2024/02/02 10:05:51;;;;;;;4.10;2.80;;;;;;;;;;5056582;28;20134;-59
2024/02/02 10:08:35;;;;;;;3.80;2.70;;;;;;;;;;5057094;28;20045;-63
2024/02/02 10:11:11;;;;;;;5.20;3.05;;;;;;;;;;5055731;28;20509;-61
2024/02/02 10:13:46;;;;;;;4.80;3.50;;;;;;;;;;5058165;28;20125;-66
2024/02/02 10:16:14;;;;;;;;;;;;;;;;;;5058052;28;20045;-59
2024/02/02 10:18:52;;;;;;;5.05;3.05;;;;;;;;;;5056607;28;19928;-58
2024/02/02 10:21:30;;;;;;;4.13;2.80;;;;;;;;;;5058169;28;20052;-58
2024/02/02 10:24:17;;;;;;;3.83;2.70;;;;;;;;;;5058159;28;20056;-62
2024/02/02 10:26:58;;;;;;;4.13;2.75;;;;;;;;;;5056112;28;20045;-62
2024/02/02 10:29:34;;;;;;;4.85;3.15;;;;;;;;;;5057940;28;20086;-60
2024/02/02 10:32:15;;;;;;;4.10;2.90;;;;;;;;;;5059212;28;20044;-59
2024/02/02 10:34:50;;;;;;;4.40;3.00;;;;;;;;;;5056529;28;20055;-68
2024/02/02 10:37:30;;;;;;;4.38;2.85;;;;;;;;;;5056828;28;20063;-59
2024/02/02 10:40:06;;;;;;;4.10;2.75;;;;;;;;;;5054837;28;20052;-58
2024/02/02 10:42:42;;;;;;;3.60;2.65;;;;;;;;;;5058467;28;20098;-61
2024/02/02 10:45:17;;;;;;;5.72;2.83;;;;;;;;;;5067930;28;20413;-61
2024/02/02 10:47:52;;;;;;;4.68;2.47;;;;;;;;;;5067940;28;20055;-59
2024/02/02 10:50:22;;;;;;;3.92;2.20;;;;;;;;;;5068014;28;20527;-57
2024/02/02 10:52:57;;;;;;;4.35;2.70;;;;;;;;;;5068642;28;20048;-58
2024/02/02 10:55:31;;;;;;;3.90;2.50;;;;;;;;;;5066840;28;20044;-58
2024/02/02 10:58:06;;;;;;;5.82;2.25;;;;;;;;;;5063877;28;20067;-61
2024/02/02 11:00:39;;;;;;;3.17;1.95;;;;;;;;;;5064255;28;20049;-56
2024/02/02 11:03:16;;;;;;;3.10;2.30;;;;;;;;;;5062274;28;20057;-57
2024/02/02 11:05:50;;;;;;;3.42;1.98;;;;;;;;;;5068326;28;20102;-58
2024/02/02 11:08:22;;;;;;;2.63;1.65;;;;;;;;;;5057534;28;20045;-60
2024/02/02 11:10:55;;;;;;;2.38;1.80;;;;;;;;;;5068159;28;20036;-59
2024/02/02 11:13:30;;;;;;;2.75;2.00;;;;;;;;;;5058236;28;20044;-58
2024/02/02 11:16:03;;;;;;;2.60;2.03;;;;;;;;;;5065015;28;20501;-61
2024/02/02 11:18:37;;;;;;;2.72;1.90;;;;;;;;;;5054225;28;20179;-61
2024/02/02 11:21:14;;;;;;;2.65;1.80;;;;;;;;;;5053142;28;20424;-62
2024/02/02 11:23:47;;;;;;;3.90;2.47;;;;;;;;;;5058567;28;20045;-59
2024/02/02 11:26:17;;;;;;;4.38;2.45;;;;;;;;;;5055317;28;20156;-59
2024/02/02 11:28:52;;;;;;;3.80;2.30;;;;;;;;;;5054730;28;20274;-58
2024/02/02 11:31:25;;;;;;;3.65;2.47;;;;;;;;;;5057079;28;20060;-58
2024/02/02 11:33:59;;;;;;;4.07;2.50;;;;;;;;;;5061125;28;20052;-58
2024/02/02 11:36:33;;;;;;;5.05;2.60;;;;;;;;;;5060113;28;20056;-59
2024/02/02 11:39:10;;;;;;;3.88;2.22;;;;;;;;;;5068263;28;20049;-60
2024/02/02 11:41:39;;;;;;;3.60;2.10;;;;;;;;;;5067230;28;20049;-58
2024/02/02 11:44:10;;;;;;;3.20;1.85;;;;;;;;;;5068939;28;20102;-58
2024/02/02 11:46:39;;;;;;;3.38;2.28;;;;;;;;;;5055695;28;20048;-58
2024/02/02 11:49:09;;;;;;;2.45;1.88;;;;;;;;;;5062971;28;20056;-60
2024/02/02 11:51:40;;;;;;;4.50;2.05;;;;;;;;;;5062950;28;20033;-60
2024/02/02 11:54:12;;;;;;;2.10;1.48;;;;;;;;;;5064638;28;20041;-58
2024/02/02 11:56:41;;;;;;;3.03;1.98;;;;;;;;;;5069346;28;20131;-58
2024/02/02 11:59:14;;;;;;;1.88;1.70;;;;;;;;;;5071697;28;20049;-58
2024/02/02 12:01:49;;;;;;;3.33;1.80;;;;;;;;;;5071071;28;20094;-61
2024/02/02 12:04:25;;;;;;;4.00;1.95;;;;;;;;;;5070551;28;20102;-60
2024/02/02 12:07:00;;;;;;;3.33;1.83;;;;;;;;;;5066372;28;20568;-57
2024/02/02 12:09:32;;;;;;;2.13;1.50;;;;;;;;;;5061965;28;20044;-63
2024/02/02 12:12:02;;;;;;;3.25;1.70;;;;;;;;;;5065801;28;20124;-63
2024/02/02 12:14:33;;;;;;;3.05;1.75;;;;;;;;;;5059569;28;20603;-58
2024/02/02 12:17:01;;;;;;;2.75;1.95;;;;;;;;;;5060228;28;20047;-62
2024/02/02 12:19:30;;;;;;;2.28;1.50;;;;;;;;;;5059924;28;20053;-70
2024/02/02 12:21:58;;;;;;;3.20;1.70;;;;;;;;;;5059840;28;20118;-68
2024/02/02 12:24:28;;;;;;;3.10;1.90;;;;;;;;;;5058861;28;20424;-68
2024/02/02 12:26:57;;;;;;;2.38;1.52;;;;;;;;;;5061330;28;20549;-64
2024/02/02 12:29:26;;;;;;;4.30;1.75;;;;;;;;;;5061413;28;20044;-58
2024/02/02 12:31:56;;;;;;;2.88;1.67;;;;;;;;;;5066711;28;20076;-58
2024/02/02 12:34:25;;;;;;;2.05;1.70;;;;;;;;;;5070694;28;20048;-60
2024/02/02 12:36:54;;;;;;;2.22;1.63;;;;;;;;;;5070300;28;20040;-62
2024/02/02 12:39:23;;;;;;;2.00;1.63;;;;;;;;;;5069575;28;20040;-61
2024/02/02 12:41:55;;;;;;;3.47;1.50;;;;;;;;;;5070762;28;20316;-61
2024/02/02 12:44:26;;;;;;;3.08;1.90;;;;;;;;;;5071314;28;20048;-58
2024/02/02 12:46:54;;;;;;;1.90;1.40;;;;;;;;;;5069543;28;20117;-61
2024/02/02 12:49:25;;;;;;;2.75;1.90;;;;;;;;;;5067887;28;20056;-60
2024/02/02 12:51:56;;;;;;;2.50;1.50;;;;;;;;;;5065970;28;20044;-62
2024/02/02 12:54:25;;;;;;;2.47;1.65;;;;;;;;;;5071145;28;20154;-58
2024/02/02 12:56:53;;;;;;;2.03;1.40;;;;;;;;;;5066683;28;20053;-59
2024/02/02 12:59:23;;;;;;;2.20;1.50;;;;;;;;;;5057787;28;20489;-62
2024/02/02 13:01:53;;;;;;;2.40;1.30;;;;;;;;;;5064949;28;20548;-61
2024/02/02 13:04:21;;;;;;;2.35;1.50;;;;;;;;;;5066086;28;20148;-65
2024/02/02 13:06:51;;;;;;;1.55;1.38;;;;;;;;;;5064818;28;20040;-62
2024/02/02 13:09:29;;;;;;;1.65;1.20;;;;;;;;;;5056956;28;20618;-58
2024/02/02 13:11:58;;;;;;;1.92;1.23;;;;;;;;;;5059605;28;20135;-64
2024/02/02 13:14:30;;;;;;;1.75;1.40;;;;;;;;;;5060090;28;20138;-60
2024/02/02 13:17:09;;;;;;;1.75;1.30;;;;;;;;;;5059947;28;20059;-59
2024/02/02 13:19:38;;;;;;;1.95;1.20;;;;;;;;;;5055569;28;20044;-58
2024/02/02 13:22:17;;;;;;;1.45;1.10;;;;;;;;;;5057182;28;20056;-62
2024/02/02 13:24:47;;;;;;;1.98;1.10;;;;;;;;;;5057842;28;20179;-63
2024/02/02 13:27:19;;;;;;;1.90;1.20;;;;;;;;;;5057715;28;20048;-57
2024/02/02 13:29:49;;;;;;;2.45;1.10;;;;;;;;;;5057773;28;20103;-58
2024/02/02 13:32:19;;;;;;;1.85;1.10;;;;;;;;;;5055933;28;20118;-59
2024/02/02 13:34:48;;;;;;;0.80;0.80;;;;;;;;;;5055802;28;20394;-60
2024/02/02 13:37:36;;;;;;;0.75;0.70;;;;;;;;;;5055209;28;20044;-66
2024/02/02 13:40:09;;;;;;;0.90;0.65;;;;;;;;;;5057704;28;20140;-59
2024/02/02 13:42:39;;;;;;;1.13;0.73;;;;;;;;;;5055683;28;20041;-59
2024/02/02 13:45:10;;;;;;;1.60;0.80;;;;;;;;;;5065027;28;20052;-58
2024/02/02 13:47:39;;;;;;;0.70;0.70;;;;;;;;;;5064233;28;20121;-59
2024/02/02 13:50:15;;;;;;;1.77;0.90;;;;;;;;;;5068194;28;20045;-58
2024/02/02 13:52:47;;;;;;;1.00;0.70;;;;;;;;;;5069629;28;20166;-57
2024/02/02 13:55:18;;;;;;;1.17;0.80;;;;;;;;;;5064146;28;20067;-64
2024/02/02 13:57:48;;;;;;;2.28;0.70;;;;;;;;;;5068202;28;20056;-61
2024/02/02 14:00:17;;;;;;;1.45;0.65;;;;;;;;;;5067765;28;20044;-61
2024/02/02 14:02:46;;;;;;;0.88;0.85;;;;;;;;;;5062345;28;20068;-58
2024/02/02 14:05:15;;;;;;;0.80;0.77;;;;;;;;;;5059221;28;20098;-58
2024/02/02 14:07:43;;;;;;;0.75;0.60;;;;;;;;;;5057162;28;20115;-61
2024/02/02 14:10:16;;;;;;;2.38;0.68;;;;;;;;;;5060934;28;20044;-59
2024/02/02 14:12:44;;;;;;;0.80;0.80;;;;;;;;;;5056960;28;20055;-60
2024/02/02 14:15:13;;;;;;;1.52;0.63;;;;;;;;;;5060158;28;20053;-58
2024/02/02 14:17:41;;;;;;;1.70;0.73;;;;;;;;;;5063944;28;20056;-61
2024/02/02 14:20:10;;;;;;;1.05;0.68;;;;;;;;;;5058218;28;20048;-62
2024/02/02 14:22:39;;;;;;;1.27;0.70;;;;;;;;;;5057729;28;20056;-62
2024/02/02 14:25:07;;;;;;;0.65;0.50;;;;;;;;;;5053487;28;20693;-68
2024/02/02 14:27:38;;;;;;;1.17;0.80;;;;;;;;;;5055107;28;20060;-58
2024/02/02 14:30:07;;;;;;;0.68;0.55;;;;;;;;;;5058561;28;20049;-62
2024/02/02 14:32:37;;;;;;;0.82;0.55;;;;;;;;;;5060026;28;20075;-65
2024/02/02 14:35:06;;;;;;;0.55;0.55;;;;;;;;;;5066170;28;20036;-61
2024/02/02 14:37:35;;;;;;;0.70;0.70;;;;;;;;;;5066047;28;20037;-62
2024/02/02 14:40:04;;;;;;;0.68;0.50;;;;;;;;;;5067467;28;20036;-58
2024/02/02 14:42:32;;;;;;;0.68;0.52;;;;;;;;;;5061075;28;20083;-58
2024/02/02 14:45:02;;;;;;;0.63;0.63;;;;;;;;;;5065740;28;20570;-63
2024/02/02 14:47:32;;;;;;;0.50;0.50;;;;;;;;;;5066226;28;20079;-58
2024/02/02 14:50:01;;;;;;;2.78;0.93;;;;;;;;;;5068076;28;20055;-61
2024/02/02 14:52:30;;;;;;;0.70;0.70;;;;;;;;;;5065648;28;20779;-57
2024/02/02 14:54:59;;;;;;;0.50;0.50;;;;;;;;;;5064062;28;20080;-63
2024/02/02 14:57:27;;;;;;;0.52;0.52;;;;;;;;;;5066144;28;20551;-64
2024/02/02 14:59:57;;;;;;;0.90;0.70;;;;;;;;;;5067293;28;20040;-64